createdAt,value
2019-05-25T00:01:50.715Z,2.00
2019-05-25T00:04:21.643Z,1.90
2019-05-25T00:06:52.717Z,2.20
2019-05-25T00:09:34.381Z,2.30
2019-05-25T00:12:06.214Z,1.70
2019-05-25T00:14:36.727Z,2.00
2019-05-25T00:17:07.164Z,2.13
2019-05-25T00:19:37.066Z,2.00
2019-05-25T00:22:07.168Z,1.90
2019-05-25T00:24:37.296Z,2.23
2019-05-25T00:27:06.839Z,1.92
2019-05-25T00:29:42.930Z,2.17
2019-05-25T00:32:15.904Z,1.90
2019-05-25T00:34:50.765Z,2.62
2019-05-25T00:37:21.781Z,2.17
2019-05-25T00:39:53.260Z,2.33
2019-05-25T00:42:24.013Z,2.08
2019-05-25T00:44:54.779Z,2.30
2019-05-25T00:47:28.368Z,2.53
2019-05-25T00:49:59.036Z,2.50
2019-05-25T00:52:30.204Z,2.20
2019-05-25T00:55:00.138Z,2.30
2019-05-25T00:57:30.142Z,2.50
2019-05-25T01:00:01.329Z,2.43
2019-05-25T01:02:42.311Z,2.40
2019-05-25T01:05:20.260Z,2.43
2019-05-25T01:07:50.754Z,2.53
2019-05-25T01:10:21.495Z,2.85
2019-05-25T01:12:55.049Z,2.78
2019-05-25T01:15:32.432Z,2.37
2019-05-25T01:18:04.671Z,2.40
2019-05-25T01:20:37.965Z,2.43
2019-05-25T01:23:10.921Z,2.50
2019-05-25T01:28:16.253Z,2.40
2019-05-25T01:30:47.237Z,2.30
2019-05-25T01:33:21.608Z,2.57
2019-05-25T01:35:52.712Z,2.45
2019-05-25T01:38:26.525Z,2.60
2019-05-25T01:40:57.163Z,3.00
2019-05-25T01:43:27.324Z,2.70
2019-05-25T01:45:57.886Z,2.83
2019-05-25T01:48:28.943Z,2.78
2019-05-25T01:51:03.306Z,2.70
2019-05-25T01:53:43.060Z,2.60
2019-05-25T01:56:16.621Z,2.87
2019-05-25T01:58:46.767Z,2.87
2019-05-25T02:01:17.672Z,2.70
2019-05-25T02:03:48.286Z,2.90
2019-05-25T02:06:18.787Z,3.35
2019-05-25T02:08:50.733Z,3.40
2019-05-25T02:11:20.585Z,3.25
2019-05-25T02:13:50.803Z,3.80
2019-05-25T02:16:23.898Z,3.45
2019-05-25T02:18:54.160Z,3.93
2019-05-25T02:21:25.345Z,4.07
2019-05-25T02:23:56.624Z,4.20
2019-05-25T02:26:27.024Z,4.37
2019-05-25T02:28:57.641Z,3.78
2019-05-25T02:31:28.109Z,4.28
2019-05-25T02:33:58.965Z,4.40
2019-05-25T02:36:30.003Z,4.37
2019-05-25T02:39:03.270Z,4.47
2019-05-25T02:41:36.741Z,4.83
2019-05-25T02:44:07.664Z,4.50
2019-05-25T02:46:37.989Z,4.93
2019-05-25T02:49:06.759Z,4.47
2019-05-25T02:51:36.660Z,5.00
2019-05-25T02:54:08.093Z,5.20
2019-05-25T02:56:35.856Z,5.30
2019-05-25T02:59:07.675Z,5.27
2019-05-25T03:01:37.866Z,4.40
2019-05-25T03:04:08.083Z,4.90
2019-05-25T03:06:37.952Z,5.03
2019-05-25T03:09:07.923Z,5.83
2019-05-25T03:11:38.102Z,4.80
2019-05-25T03:14:08.831Z,4.67
2019-05-25T03:16:40.406Z,5.07
2019-05-25T03:19:16.928Z,4.57
2019-05-25T03:21:49.142Z,5.20
2019-05-25T03:24:19.890Z,4.63
2019-05-25T03:26:50.766Z,4.85
2019-05-25T03:29:22.454Z,4.60
2019-05-25T03:31:53.223Z,4.45
2019-05-25T03:34:29.189Z,4.40
2019-05-25T03:37:00.661Z,4.50
2019-05-25T03:39:31.264Z,4.40
2019-05-25T03:42:04.552Z,3.43
2019-05-25T03:44:35.562Z,3.60
2019-05-25T03:47:07.552Z,3.73
2019-05-25T03:49:40.838Z,3.83
2019-05-25T03:52:15.854Z,4.57
2019-05-25T03:54:50.266Z,4.30
2019-05-25T03:57:21.254Z,4.00
2019-05-25T03:59:51.555Z,3.90
2019-05-25T04:02:22.795Z,4.37
2019-05-25T04:04:56.401Z,4.15
2019-05-25T04:10:11.855Z,4.70
2019-05-25T04:12:45.513Z,3.90
2019-05-25T04:15:16.030Z,3.97
2019-05-25T04:17:49.147Z,4.40
2019-05-25T04:20:20.352Z,4.20
2019-05-25T04:22:51.117Z,3.87
2019-05-25T04:25:22.888Z,4.10
2019-05-25T04:27:53.521Z,4.10
2019-05-25T04:30:25.811Z,3.63
2019-05-25T04:32:59.375Z,4.27
2019-05-25T04:35:29.362Z,3.90
2019-05-25T04:37:59.440Z,3.73
2019-05-25T04:40:29.908Z,4.43
2019-05-25T04:43:01.709Z,4.00
2019-05-25T04:45:32.760Z,3.77
2019-05-25T04:48:05.566Z,3.63
2019-05-25T04:50:38.353Z,3.97
2019-05-25T04:53:12.272Z,3.93
2019-05-25T04:55:46.215Z,3.70
2019-05-25T05:00:51.131Z,2.93
2019-05-25T05:03:23.154Z,3.03
2019-05-25T05:05:54.511Z,3.13
2019-05-25T05:08:30.588Z,3.80
2019-05-25T05:11:09.754Z,3.40
2019-05-25T05:13:43.786Z,3.80
2019-05-25T05:16:14.203Z,3.73
2019-05-25T05:18:46.372Z,3.67
2019-05-25T05:21:21.806Z,3.57
2019-05-25T05:23:57.852Z,3.33
2019-05-25T05:26:32.526Z,3.90
2019-05-25T05:29:07.558Z,3.85
2019-05-25T05:31:40.595Z,3.50
2019-05-25T05:34:15.345Z,3.30
2019-05-25T05:36:50.739Z,3.65
2019-05-25T05:39:27.901Z,3.22
2019-05-25T05:42:02.793Z,3.53
2019-05-25T05:44:40.595Z,3.30
2019-05-25T05:47:16.552Z,3.67
2019-05-25T05:49:58.776Z,3.57
2019-05-25T05:52:34.230Z,3.17
2019-05-25T05:55:07.713Z,3.37
2019-05-25T05:57:42.685Z,3.40
2019-05-25T06:00:19.853Z,3.33
2019-05-25T06:02:55.575Z,4.00
2019-05-25T06:05:29.466Z,3.57
2019-05-25T06:08:09.637Z,3.60
2019-05-25T06:10:40.339Z,3.60
2019-05-25T06:13:11.394Z,3.63
2019-05-25T06:15:48.045Z,3.93
2019-05-25T06:18:20.031Z,3.67
2019-05-25T06:20:55.074Z,3.43
2019-05-25T06:23:33.481Z,3.50
2019-05-25T06:26:05.174Z,3.47
2019-05-25T06:28:38.825Z,3.57
2019-05-25T06:31:14.314Z,3.57
2019-05-25T06:33:46.993Z,3.60
2019-05-25T06:36:18.165Z,4.03
2019-05-25T06:38:49.855Z,4.27
2019-05-25T06:41:25.530Z,3.90
2019-05-25T06:43:57.065Z,4.03
2019-05-25T06:46:31.290Z,3.63
2019-05-25T06:49:14.284Z,3.80
2019-05-25T06:51:45.614Z,4.17
2019-05-25T06:54:18.572Z,3.90
2019-05-25T06:56:54.460Z,4.20
2019-05-25T06:59:38.674Z,4.03
2019-05-25T07:02:09.729Z,4.30
2019-05-25T07:04:43.733Z,4.20
2019-05-25T07:07:21.434Z,4.37
2019-05-25T07:09:53.866Z,4.17
2019-05-25T07:12:25.969Z,4.36
2019-05-25T07:17:39.418Z,4.30
2019-05-25T07:20:11.941Z,3.97
2019-05-25T07:22:44.082Z,4.70
2019-05-25T07:25:20.455Z,4.20
2019-05-25T07:27:59.837Z,4.63
2019-05-25T07:30:26.012Z,3.80
2019-05-25T07:32:57.790Z,4.45
2019-05-25T07:35:28.225Z,4.60
2019-05-25T07:37:59.010Z,3.97
2019-05-25T07:40:30.196Z,4.13
2019-05-25T07:43:07.194Z,4.28
2019-05-25T07:45:40.416Z,4.70
2019-05-25T07:48:12.677Z,4.27
2019-05-25T07:50:44.447Z,4.90
2019-05-25T07:53:15.880Z,4.80
2019-05-25T07:55:47.163Z,4.90
2019-05-25T07:58:19.873Z,5.30
2019-05-25T08:00:50.042Z,6.20
2019-05-25T08:03:22.515Z,5.80
2019-05-25T08:05:53.857Z,5.73
2019-05-25T08:08:25.146Z,5.18
2019-05-25T08:10:55.298Z,5.47
2019-05-25T08:13:25.584Z,5.23
2019-05-25T08:15:56.000Z,5.50
2019-05-25T08:18:33.470Z,5.00
2019-05-25T08:21:10.451Z,4.70
2019-05-25T08:23:40.745Z,4.20
2019-05-25T08:26:12.533Z,4.33
2019-05-25T08:28:42.603Z,3.93
2019-05-25T08:31:15.712Z,3.90
2019-05-25T08:33:46.048Z,4.00
2019-05-25T08:36:16.022Z,3.63
2019-05-25T08:38:46.842Z,3.80
2019-05-25T08:41:17.082Z,4.10
2019-05-25T08:43:52.897Z,3.50
2019-05-25T08:46:28.939Z,3.87
2019-05-25T08:53:46.905Z,3.73
2019-05-25T08:56:21.058Z,3.90
2019-05-25T08:58:55.485Z,4.00
2019-05-25T09:01:27.863Z,3.85
2019-05-25T09:03:58.154Z,4.03
2019-05-25T09:06:30.719Z,3.80
2019-05-25T09:09:04.754Z,4.95
2019-05-25T09:17:03.318Z,5.03
2019-05-25T09:19:41.066Z,4.50
2019-05-25T09:22:11.951Z,4.60
2019-05-25T09:24:45.474Z,5.23
2019-05-25T09:27:24.834Z,4.87
2019-05-25T09:29:55.930Z,5.00
2019-05-25T09:32:29.789Z,4.82
2019-05-25T09:35:00.937Z,4.70
2019-05-25T09:37:36.401Z,4.47
2019-05-25T09:40:07.930Z,4.47
2019-05-25T09:42:39.492Z,4.15
2019-05-25T09:45:13.819Z,3.90
2019-05-25T09:47:41.337Z,4.03
2019-05-25T09:51:01.779Z,3.73
2019-05-25T09:53:34.276Z,4.20
2019-05-25T09:56:05.989Z,5.10
2019-05-25T09:58:38.995Z,4.90
2019-05-25T10:01:10.378Z,4.40
2019-05-25T10:03:42.960Z,4.77
2019-05-25T10:06:14.751Z,4.93
2019-05-25T10:08:46.348Z,5.10
2019-05-25T10:11:17.246Z,4.50
2019-05-25T10:13:48.210Z,4.50
2019-05-25T10:16:20.832Z,5.23
2019-05-25T10:18:57.730Z,5.10
2019-05-25T10:21:28.370Z,4.24
2019-05-25T10:23:59.055Z,4.40
2019-05-25T10:26:30.724Z,5.07
2019-05-25T10:29:04.290Z,5.10
2019-05-25T10:31:37.602Z,5.30
2019-05-25T10:34:08.683Z,5.20
2019-05-25T10:36:40.346Z,5.28
2019-05-25T10:41:55.162Z,4.90
2019-05-25T10:44:26.062Z,4.30
2019-05-25T10:46:57.869Z,4.57
2019-05-25T10:49:28.894Z,4.37
2019-05-25T10:51:58.994Z,5.06
2019-05-25T10:54:29.316Z,4.53
2019-05-25T10:56:59.704Z,4.33
2019-05-25T10:59:30.158Z,4.30
2019-05-25T11:02:03.359Z,5.03
2019-05-25T11:04:34.260Z,4.22
2019-05-25T11:07:04.695Z,4.10
2019-05-25T11:09:36.112Z,4.60
2019-05-25T11:12:08.270Z,4.20
2019-05-25T11:14:48.496Z,4.68
2019-05-25T11:17:20.787Z,4.77
2019-05-25T11:19:52.595Z,4.20
2019-05-25T11:22:25.593Z,4.10
2019-05-25T11:24:57.993Z,4.30
2019-05-25T11:27:29.044Z,4.80
2019-05-25T11:30:09.155Z,4.13
2019-05-25T11:32:39.317Z,5.23
2019-05-25T11:35:10.306Z,4.85
2019-05-25T11:37:40.924Z,5.32
2019-05-25T11:40:15.393Z,4.97
2019-05-25T11:42:48.979Z,15.00
2019-05-25T11:45:19.230Z,4.87
2019-05-25T11:47:49.616Z,4.78
2019-05-25T11:50:19.812Z,4.50
2019-05-25T11:52:49.865Z,5.00
2019-05-25T11:55:20.562Z,5.03
2019-05-25T11:57:50.874Z,5.47
2019-05-25T12:00:25.338Z,5.30
2019-05-25T12:02:56.945Z,4.70
2019-05-25T12:05:28.220Z,4.53
2019-05-25T12:07:59.385Z,4.60
2019-05-25T12:10:31.098Z,4.33
2019-05-25T12:13:01.592Z,4.32
2019-05-25T12:15:31.954Z,4.70
2019-05-25T12:18:05.518Z,4.47
2019-05-25T12:20:37.157Z,4.97
2019-05-25T12:23:08.049Z,4.77
2019-05-25T12:25:39.943Z,4.50
2019-05-25T12:28:09.983Z,3.90
2019-05-25T12:30:43.229Z,4.15
2019-05-25T12:33:13.856Z,4.30
2019-05-25T12:35:45.664Z,4.27
2019-05-25T12:38:57.756Z,4.27
2019-05-25T12:41:33.427Z,4.13
2019-05-25T12:44:04.792Z,4.10
2019-05-25T12:46:39.808Z,4.17
2019-05-25T12:49:11.562Z,3.57
2019-05-25T12:51:43.054Z,4.20
2019-05-25T12:54:19.958Z,4.10
2019-05-25T12:56:55.591Z,4.40
2019-05-25T12:59:29.804Z,4.30
2019-05-25T13:02:05.243Z,4.07
2019-05-25T13:04:38.388Z,4.22
2019-05-25T13:07:11.620Z,4.27
2019-05-25T13:09:45.834Z,4.18
2019-05-25T13:12:15.474Z,4.07
2019-05-25T13:14:46.340Z,4.30
2019-05-25T13:17:17.629Z,3.70
2019-05-25T13:19:47.710Z,3.80
2019-05-25T13:22:17.839Z,3.17
2019-05-25T13:24:48.679Z,4.03
2019-05-25T13:27:19.485Z,3.80
2019-05-25T13:29:50.690Z,3.90
2019-05-25T13:32:24.847Z,3.83
2019-05-25T13:34:59.907Z,3.90
2019-05-25T13:37:32.300Z,3.50
2019-05-25T13:40:07.481Z,3.95
2019-05-25T13:42:37.271Z,3.80
2019-05-25T13:45:07.973Z,3.70
2019-05-25T13:47:37.964Z,4.53
2019-05-25T13:50:09.080Z,3.47
2019-05-25T13:52:39.860Z,4.10
2019-05-25T13:55:09.947Z,3.87
2019-05-25T13:57:39.937Z,3.73
2019-05-25T14:00:10.486Z,3.53
2019-05-25T14:02:40.795Z,3.60
2019-05-25T14:05:10.889Z,3.03
2019-05-25T14:07:41.246Z,3.33
2019-05-25T14:10:11.742Z,3.47
2019-05-25T14:12:44.014Z,3.20
2019-05-25T14:15:16.494Z,3.20
2019-05-25T14:17:47.052Z,3.80
2019-05-25T14:20:18.320Z,2.90
2019-05-25T14:22:49.209Z,3.37
2019-05-25T14:25:20.354Z,3.20
2019-05-25T14:27:51.350Z,2.80
2019-05-25T14:30:21.911Z,2.93
2019-05-25T14:32:53.175Z,3.77
2019-05-25T14:35:23.923Z,3.30
2019-05-25T14:37:57.505Z,3.90
2019-05-25T14:40:31.300Z,3.80
2019-05-25T14:43:01.510Z,3.12
2019-05-25T14:45:31.933Z,3.55
2019-05-25T14:48:01.968Z,3.60
2019-05-25T14:50:32.942Z,3.80
2019-05-25T14:53:05.087Z,4.10
2019-05-25T14:55:35.209Z,3.77
2019-05-25T14:58:05.811Z,4.00
2019-05-25T15:00:37.885Z,4.10
2019-05-25T15:03:10.443Z,3.60
2019-05-25T15:05:41.576Z,3.50
2019-05-25T15:08:15.526Z,3.20
2019-05-25T15:13:29.955Z,3.47
2019-05-25T15:16:00.630Z,3.30
2019-05-25T15:18:31.742Z,3.53
2019-05-25T15:21:03.846Z,3.20
2019-05-25T15:23:34.741Z,3.10
2019-05-25T15:26:11.670Z,3.03
2019-05-25T15:28:41.773Z,3.10
2019-05-25T15:31:11.785Z,3.70
2019-05-25T15:33:42.383Z,3.58
2019-05-25T15:36:17.467Z,3.27
2019-05-25T15:38:52.666Z,3.50
2019-05-25T15:41:26.961Z,3.17
2019-05-25T15:44:16.965Z,3.28
2019-05-25T15:46:54.731Z,2.90
2019-05-25T15:49:33.581Z,2.80
2019-05-25T15:55:05.287Z,3.30
2019-05-25T15:57:35.053Z,3.42
2019-05-25T16:00:09.409Z,3.57
2019-05-25T16:02:40.676Z,3.13
2019-05-25T16:05:10.279Z,2.95
2019-05-25T16:07:40.741Z,3.10
2019-05-25T16:10:11.635Z,2.67
2019-05-25T16:12:42.021Z,2.50
2019-05-25T16:15:11.798Z,2.80
2019-05-25T16:17:41.936Z,2.75
2019-05-25T16:20:13.069Z,2.45
2019-05-25T16:22:44.543Z,2.80
2019-05-25T16:25:19.553Z,2.80
2019-05-25T16:27:49.611Z,2.10
2019-05-25T16:30:21.122Z,2.20
2019-05-25T16:35:20.688Z,2.37
2019-05-25T16:37:51.129Z,2.30
2019-05-25T16:40:20.721Z,2.30
2019-05-25T16:42:52.447Z,2.03
2019-05-25T16:45:23.913Z,2.70
2019-05-25T16:47:53.994Z,2.33
2019-05-25T16:50:25.196Z,2.30
2019-05-25T16:52:55.243Z,2.53
2019-05-25T16:55:25.476Z,2.23
2019-05-25T16:57:55.151Z,2.00
2019-05-25T17:00:28.659Z,2.17
2019-05-25T17:03:05.947Z,2.24
2019-05-25T17:05:37.975Z,2.12
2019-05-25T17:08:08.463Z,2.30
2019-05-25T17:10:38.767Z,2.20
2019-05-25T17:13:09.431Z,1.80
2019-05-25T17:15:40.403Z,1.90
2019-05-25T17:18:11.132Z,2.15
2019-05-25T17:20:41.773Z,1.98
2019-05-25T17:23:15.077Z,2.35
2019-05-25T17:25:46.859Z,2.00
2019-05-25T17:28:19.560Z,2.20
2019-05-25T17:30:50.260Z,2.17
2019-05-25T17:33:20.279Z,2.10
2019-05-25T17:35:56.688Z,2.10
2019-05-25T17:38:32.474Z,2.03
2019-05-25T17:41:07.567Z,2.13
2019-05-25T17:43:37.857Z,2.10
2019-05-25T17:46:08.117Z,2.50
2019-05-25T17:48:38.535Z,1.90
2019-05-25T17:51:19.782Z,2.63
2019-05-25T17:53:50.920Z,2.80
2019-05-25T17:56:23.032Z,2.00
2019-05-25T17:58:56.288Z,1.93
2019-05-25T18:01:26.998Z,1.90
2019-05-25T18:04:06.318Z,1.90
2019-05-25T18:06:31.719Z,1.97
2019-05-25T18:09:02.310Z,2.10
2019-05-25T18:11:34.405Z,2.00
2019-05-25T18:14:07.349Z,2.23
2019-05-25T18:16:40.714Z,2.10
2019-05-25T18:19:11.920Z,2.17
2019-05-25T18:21:44.773Z,2.00
2019-05-25T18:24:16.483Z,2.15
2019-05-25T18:26:47.263Z,2.30
2019-05-25T18:29:18.762Z,2.40
2019-05-25T18:31:49.819Z,2.08
2019-05-25T18:34:22.648Z,2.40
2019-05-25T18:36:52.577Z,2.45
2019-05-25T18:39:24.925Z,2.50
2019-05-25T18:41:56.112Z,2.30
2019-05-25T18:44:32.144Z,2.40
2019-05-25T18:47:05.874Z,2.40
2019-05-25T18:49:43.451Z,2.50
2019-05-25T18:52:16.961Z,3.47
2019-05-25T18:54:49.477Z,2.40
2019-05-25T19:00:05.805Z,2.05
2019-05-25T19:02:39.831Z,2.40
2019-05-25T19:05:16.246Z,2.40
2019-05-25T19:07:55.946Z,2.60
2019-05-25T19:10:35.200Z,1.98
2019-05-25T19:13:07.537Z,2.10
2019-05-25T19:15:37.298Z,2.30
2019-05-25T19:18:07.736Z,2.60
2019-05-25T19:20:39.042Z,2.20
2019-05-25T19:23:10.472Z,1.93
2019-05-25T19:25:42.934Z,2.30
2019-05-25T19:28:12.233Z,2.20
2019-05-25T19:30:49.376Z,2.47
2019-05-25T19:33:21.026Z,2.30
2019-05-25T19:35:54.423Z,2.47
2019-05-25T19:38:23.676Z,2.80
2019-05-25T19:40:53.549Z,2.90
2019-05-25T19:43:23.121Z,2.30
2019-05-25T19:45:59.169Z,2.83
2019-05-25T19:48:29.135Z,2.30
2019-05-25T19:50:59.581Z,2.60
2019-05-25T19:53:31.221Z,2.00
2019-05-25T19:56:01.682Z,2.20
2019-05-25T19:58:30.051Z,2.10
2019-05-25T20:00:58.071Z,2.37
2019-05-25T20:03:27.735Z,2.20
2019-05-25T20:05:59.487Z,2.47
2019-05-25T20:08:30.073Z,2.10
2019-05-25T20:11:06.817Z,2.50
2019-05-25T20:13:44.214Z,2.60
2019-05-25T20:16:17.189Z,3.00
2019-05-25T20:18:47.003Z,2.77
2019-05-25T20:21:18.785Z,2.40
2019-05-25T20:23:48.796Z,2.67
2019-05-25T20:26:19.755Z,2.72
2019-05-25T20:28:50.997Z,2.55
2019-05-25T20:31:23.018Z,2.94
2019-05-25T20:33:59.656Z,2.78
2019-05-25T20:36:31.079Z,2.63
2019-05-25T20:39:03.525Z,2.43
2019-05-25T20:41:35.186Z,2.50
2019-05-25T20:44:05.960Z,2.63
2019-05-25T20:46:36.558Z,2.20
2019-05-25T20:49:07.121Z,2.87
2019-05-25T20:51:36.921Z,2.30
2019-05-25T20:54:08.867Z,2.30
2019-05-25T20:56:38.694Z,2.30
2019-05-25T20:59:08.759Z,2.23
2019-05-25T21:01:38.742Z,2.40
2019-05-25T21:04:13.830Z,2.50
2019-05-25T21:06:46.106Z,2.45
2019-05-25T21:12:11.292Z,2.50
2019-05-25T21:14:44.395Z,2.80
2019-05-25T21:17:20.753Z,2.70
2019-05-25T21:19:53.605Z,2.90
2019-05-25T21:22:25.654Z,3.10
2019-05-25T21:24:55.950Z,2.47
2019-05-25T21:27:27.128Z,2.70
2019-05-25T21:29:57.711Z,2.55
2019-05-25T21:32:31.937Z,2.87
2019-05-25T21:35:09.139Z,2.70
2019-05-25T21:37:42.630Z,3.05
2019-05-25T21:40:12.719Z,2.70
2019-05-25T21:42:42.583Z,2.90
2019-05-25T21:45:13.484Z,3.10
2019-05-25T21:47:43.219Z,3.20
2019-05-25T21:50:12.998Z,3.20
2019-05-25T21:52:43.381Z,3.13
2019-05-25T21:55:13.101Z,3.10
2019-05-25T21:57:43.263Z,3.10
2019-05-25T22:00:13.650Z,2.80
2019-05-25T22:02:46.721Z,2.70
2019-05-25T22:05:16.569Z,2.80
2019-05-25T22:07:47.295Z,2.90
2019-05-25T22:10:17.280Z,3.67
2019-05-25T22:12:47.959Z,3.20
2019-05-25T22:17:40.094Z,2.87
2019-05-25T22:20:10.136Z,3.17
2019-05-25T22:22:39.547Z,2.80
2019-05-25T22:25:07.525Z,3.00
2019-05-25T22:27:35.912Z,3.17
2019-05-25T22:30:03.522Z,2.87
2019-05-25T22:32:32.824Z,3.25
2019-05-25T22:35:00.321Z,2.72
2019-05-25T22:37:28.974Z,2.80
2019-05-25T22:39:56.621Z,3.00
2019-05-25T22:42:24.414Z,2.90
2019-05-25T22:44:52.018Z,3.20
2019-05-25T22:47:20.959Z,3.17
2019-05-25T22:49:48.579Z,2.97
2019-05-25T22:52:18.640Z,3.20
2019-05-25T22:54:46.947Z,3.30
2019-05-25T22:57:16.467Z,3.35
2019-05-25T22:59:44.057Z,3.40
2019-05-25T23:02:12.413Z,3.10
2019-05-25T23:04:40.036Z,3.20
2019-05-25T23:07:08.813Z,3.40
2019-05-25T23:09:37.003Z,3.45
2019-05-25T23:12:04.537Z,3.37
2019-05-25T23:14:32.706Z,2.70
2019-05-25T23:17:02.314Z,3.63
2019-05-25T23:19:29.772Z,3.22
2019-05-25T23:21:57.454Z,3.37
2019-05-25T23:24:25.030Z,3.30
2019-05-25T23:26:53.913Z,3.22
2019-05-25T23:29:21.631Z,3.37
2019-05-25T23:31:49.506Z,3.80
2019-05-25T23:34:18.286Z,3.50
2019-05-25T23:36:47.340Z,3.33
2019-05-25T23:39:17.026Z,3.70
2019-05-25T23:41:45.475Z,3.50
2019-05-25T23:44:13.836Z,3.47
2019-05-25T23:46:41.437Z,3.97
2019-05-25T23:49:10.018Z,3.60
2019-05-25T23:51:37.746Z,3.37
2019-05-25T23:54:05.489Z,3.57
2019-05-25T23:56:33.393Z,3.57
2019-05-25T23:59:01.706Z,3.83
